sensor_id;sensor_type;location;lat;lon;timestamp;temperature;humidity
32640;DHT22;19049;52.524;11.468;2023-02-15T00:00:21;2.40;99.90
32640;DHT22;19049;52.524;11.468;2023-02-15T00:02:46;2.40;99.90
32640;DHT22;19049;52.524;11.468;2023-02-15T00:07:39;2.10;99.90
32640;DHT22;19049;52.524;11.468;2023-02-15T00:10:05;2.10;99.30
32640;DHT22;19049;52.524;11.468;2023-02-15T00:17:23;2.10;99.90
32640;DHT22;19049;52.524;11.468;2023-02-15T00:19:49;2.30;99.90
32640;DHT22;19049;52.524;11.468;2023-02-15T00:22:15;2.20;99.90
32640;DHT22;19049;52.524;11.468;2023-02-15T00:24:40;1.90;99.90
32640;DHT22;19049;52.524;11.468;2023-02-15T00:29:34;2.10;99.90
32640;DHT22;19049;52.524;11.468;2023-02-15T00:31:59;1.50;99.90
32640;DHT22;19049;52.524;11.468;2023-02-15T00:34:26;1.70;99.20
32640;DHT22;19049;52.524;11.468;2023-02-15T00:36:52;1.80;99.90
32640;DHT22;19049;52.524;11.468;2023-02-15T00:39:18;1.40;99.90
32640;DHT22;19049;52.524;11.468;2023-02-15T00:41:45;2.60;99.90
32640;DHT22;19049;52.524;11.468;2023-02-15T00:44:11;1.70;99.10
32640;DHT22;19049;52.524;11.468;2023-02-15T00:49:04;1.20;99.90
32640;DHT22;19049;52.524;11.468;2023-02-15T00:51:30;1.20;99.90
32640;DHT22;19049;52.524;11.468;2023-02-15T00:56:22;0.60;99.90
32640;DHT22;19049;52.524;11.468;2023-02-15T00:58:48;1.10;99.30
32640;DHT22;19049;52.524;11.468;2023-02-15T01:01:16;0.90;99.30
32640;DHT22;19049;52.524;11.468;2023-02-15T01:03:43;2.00;99.80
32640;DHT22;19049;52.524;11.468;2023-02-15T01:06:10;1.20;99.90
32640;DHT22;19049;52.524;11.468;2023-02-15T01:08:35;1.70;99.90
32640;DHT22;19049;52.524;11.468;2023-02-15T01:11:06;0.50;99.90
32640;DHT22;19049;52.524;11.468;2023-02-15T01:18:24;2.00;99.90
32640;DHT22;19049;52.524;11.468;2023-02-15T01:20:50;0.90;99.90
32640;DHT22;19049;52.524;11.468;2023-02-15T01:23:16;1.90;99.90
32640;DHT22;19049;52.524;11.468;2023-02-15T01:30:33;0.60;99.90
32640;DHT22;19049;52.524;11.468;2023-02-15T01:37:55;0.70;99.70
32640;DHT22;19049;52.524;11.468;2023-02-15T01:40:22;0.20;99.90
32640;DHT22;19049;52.524;11.468;2023-02-15T01:42:55;1.00;99.90
32640;DHT22;19049;52.524;11.468;2023-02-15T01:47:59;0.70;99.90
32640;DHT22;19049;52.524;11.468;2023-02-15T01:50:33;0.30;99.90
32640;DHT22;19049;52.524;11.468;2023-02-15T01:53:24;0.70;99.90
32640;DHT22;19049;52.524;11.468;2023-02-15T01:55:55;1.80;99.90
32640;DHT22;19049;52.524;11.468;2023-02-15T01:58:23;0.60;99.20
32640;DHT22;19049;52.524;11.468;2023-02-15T02:00:50;0.30;99.90
32640;DHT22;19049;52.524;11.468;2023-02-15T02:10:37;0.50;99.90
32640;DHT22;19049;52.524;11.468;2023-02-15T02:13:06;0.30;99.90
32640;DHT22;19049;52.524;11.468;2023-02-15T02:32:01;0.70;99.90
32640;DHT22;19049;52.524;11.468;2023-02-15T02:34:29;0.30;99.70
32640;DHT22;19049;52.524;11.468;2023-02-15T02:39:59;0.30;99.90
32640;DHT22;19049;52.524;11.468;2023-02-15T02:42:44;0.60;99.90
32640;DHT22;19049;52.524;11.468;2023-02-15T02:45:28;0.30;99.90
32640;DHT22;19049;52.524;11.468;2023-02-15T02:48:13;0.30;99.90
32640;DHT22;19049;52.524;11.468;2023-02-15T02:50:41;0.30;99.90
32640;DHT22;19049;52.524;11.468;2023-02-15T02:53:07;0.30;99.90
32640;DHT22;19049;52.524;11.468;2023-02-15T03:00:55;0.40;99.90
32640;DHT22;19049;52.524;11.468;2023-02-15T03:05:50;0.30;99.70
32640;DHT22;19049;52.524;11.468;2023-02-15T03:08:20;0.30;99.80
32640;DHT22;19049;52.524;11.468;2023-02-15T03:10:51;0.30;99.80
32640;DHT22;19049;52.524;11.468;2023-02-15T03:13:18;0.30;99.90
32640;DHT22;19049;52.524;11.468;2023-02-15T03:15:44;2.30;99.90
32640;DHT22;19049;52.524;11.468;2023-02-15T03:18:45;0.40;99.90
32640;DHT22;19049;52.524;11.468;2023-02-15T03:21:21;0.20;99.90
32640;DHT22;19049;52.524;11.468;2023-02-15T03:23:56;0.40;99.90
32640;DHT22;19049;52.524;11.468;2023-02-15T03:26:24;0.20;99.90
32640;DHT22;19049;52.524;11.468;2023-02-15T03:28:51;1.50;99.90
32640;DHT22;19049;52.524;11.468;2023-02-15T03:31:28;0.10;99.90
32640;DHT22;19049;52.524;11.468;2023-02-15T03:33:59;0.40;99.90
32640;DHT22;19049;52.524;11.468;2023-02-15T03:37:02;1.10;99.90
32640;DHT22;19049;52.524;11.468;2023-02-15T03:39:35;0.30;99.90
32640;DHT22;19049;52.524;11.468;2023-02-15T03:42:16;0.40;99.90
32640;DHT22;19049;52.524;11.468;2023-02-15T03:47:16;1.00;99.90
32640;DHT22;19049;52.524;11.468;2023-02-15T03:52:49;0.60;99.90
32640;DHT22;19049;52.524;11.468;2023-02-15T03:55:15;0.40;99.90
32640;DHT22;19049;52.524;11.468;2023-02-15T03:57:41;0.70;99.90
32640;DHT22;19049;52.524;11.468;2023-02-15T04:00:26;1.10;99.90
32640;DHT22;19049;52.524;11.468;2023-02-15T04:05:44;0.70;99.90
32640;DHT22;19049;52.524;11.468;2023-02-15T04:08:10;0.90;99.90
32640;DHT22;19049;52.524;11.468;2023-02-15T04:10:36;1.40;99.90
32640;DHT22;19049;52.524;11.468;2023-02-15T04:13:30;0.70;99.90
32640;DHT22;19049;52.524;11.468;2023-02-15T04:15:56;0.70;99.90
32640;DHT22;19049;52.524;11.468;2023-02-15T04:21:15;0.70;99.80
32640;DHT22;19049;52.524;11.468;2023-02-15T04:23:59;0.50;99.90
32640;DHT22;19049;52.524;11.468;2023-02-15T04:26:43;0.60;99.90
32640;DHT22;19049;52.524;11.468;2023-02-15T04:29:09;0.60;99.90
32640;DHT22;19049;52.524;11.468;2023-02-15T04:31:35;0.60;99.90
32640;DHT22;19049;52.524;11.468;2023-02-15T04:34:00;0.70;99.90
32640;DHT22;19049;52.524;11.468;2023-02-15T04:36:26;0.50;99.90
32640;DHT22;19049;52.524;11.468;2023-02-15T04:38:51;0.40;99.90
32640;DHT22;19049;52.524;11.468;2023-02-15T04:43:43;0.60;99.90
32640;DHT22;19049;52.524;11.468;2023-02-15T04:46:09;0.60;99.90
32640;DHT22;19049;52.524;11.468;2023-02-15T04:48:34;0.50;99.90
32640;DHT22;19049;52.524;11.468;2023-02-15T04:51:05;0.70;99.90
32640;DHT22;19049;52.524;11.468;2023-02-15T04:53:32;0.90;99.90
32640;DHT22;19049;52.524;11.468;2023-02-15T04:55:57;0.90;99.90
32640;DHT22;19049;52.524;11.468;2023-02-15T04:58:23;0.90;99.90
32640;DHT22;19049;52.524;11.468;2023-02-15T05:05:41;1.00;99.90
32640;DHT22;19049;52.524;11.468;2023-02-15T05:08:06;1.80;99.90
32640;DHT22;19049;52.524;11.468;2023-02-15T05:15:24;1.00;99.90
32640;DHT22;19049;52.524;11.468;2023-02-15T05:20:15;1.20;99.90
32640;DHT22;19049;52.524;11.468;2023-02-15T05:22:41;1.80;99.90
32640;DHT22;19049;52.524;11.468;2023-02-15T05:25:09;1.20;99.90
32640;DHT22;19049;52.524;11.468;2023-02-15T05:27:53;1.60;99.90
32640;DHT22;19049;52.524;11.468;2023-02-15T05:30:37;1.60;99.90
32640;DHT22;19049;52.524;11.468;2023-02-15T05:33:07;1.70;99.90
32640;DHT22;19049;52.524;11.468;2023-02-15T05:35:34;1.70;99.90
32640;DHT22;19049;52.524;11.468;2023-02-15T05:37:59;1.70;99.90
32640;DHT22;19049;52.524;11.468;2023-02-15T05:40:25;1.70;99.90
32640;DHT22;19049;52.524;11.468;2023-02-15T05:42:51;1.70;99.90
32640;DHT22;19049;52.524;11.468;2023-02-15T05:45:17;1.70;99.90
32640;DHT22;19049;52.524;11.468;2023-02-15T05:47:42;1.70;99.90
32640;DHT22;19049;52.524;11.468;2023-02-15T05:50:08;1.70;99.90
32640;DHT22;19049;52.524;11.468;2023-02-15T05:52:35;1.80;99.90
32640;DHT22;19049;52.524;11.468;2023-02-15T05:55:00;1.80;99.90
32640;DHT22;19049;52.524;11.468;2023-02-15T05:57:28;1.70;99.90
32640;DHT22;19049;52.524;11.468;2023-02-15T05:59:53;1.70;99.90
32640;DHT22;19049;52.524;11.468;2023-02-15T06:02:19;1.80;99.90
32640;DHT22;19049;52.524;11.468;2023-02-15T06:04:45;1.80;99.90
32640;DHT22;19049;52.524;11.468;2023-02-15T06:07:10;1.80;99.90
32640;DHT22;19049;52.524;11.468;2023-02-15T06:09:36;1.80;99.90
32640;DHT22;19049;52.524;11.468;2023-02-15T06:12:01;1.80;99.90
32640;DHT22;19049;52.524;11.468;2023-02-15T06:14:27;1.80;99.90
32640;DHT22;19049;52.524;11.468;2023-02-15T06:16:52;1.80;99.90
32640;DHT22;19049;52.524;11.468;2023-02-15T06:19:18;1.80;99.90
32640;DHT22;19049;52.524;11.468;2023-02-15T06:21:44;1.80;99.90
32640;DHT22;19049;52.524;11.468;2023-02-15T06:24:10;1.80;99.90
32640;DHT22;19049;52.524;11.468;2023-02-15T06:26:35;1.80;99.90
32640;DHT22;19049;52.524;11.468;2023-02-15T06:29:01;1.80;99.90
32640;DHT22;19049;52.524;11.468;2023-02-15T06:31:27;1.80;99.90
32640;DHT22;19049;52.524;11.468;2023-02-15T06:33:52;1.80;99.90
32640;DHT22;19049;52.524;11.468;2023-02-15T06:36:26;1.80;99.90
32640;DHT22;19049;52.524;11.468;2023-02-15T06:38:51;1.80;99.90
32640;DHT22;19049;52.524;11.468;2023-02-15T06:41:17;2.20;99.90
32640;DHT22;19049;52.524;11.468;2023-02-15T06:43:42;1.80;99.90
32640;DHT22;19049;52.524;11.468;2023-02-15T06:46:08;1.80;99.90
32640;DHT22;19049;52.524;11.468;2023-02-15T06:48:33;2.70;99.90
32640;DHT22;19049;52.524;11.468;2023-02-15T06:50:59;1.80;99.90
32640;DHT22;19049;52.524;11.468;2023-02-15T06:53:25;2.20;99.90
32640;DHT22;19049;52.524;11.468;2023-02-15T06:55:50;1.60;99.90
32640;DHT22;19049;52.524;11.468;2023-02-15T06:58:16;1.80;99.90
32640;DHT22;19049;52.524;11.468;2023-02-15T07:00:41;1.90;99.90
32640;DHT22;19049;52.524;11.468;2023-02-15T07:03:07;1.70;99.90
32640;DHT22;19049;52.524;11.468;2023-02-15T07:05:33;2.20;99.90
32640;DHT22;19049;52.524;11.468;2023-02-15T07:08:00;2.20;99.90
32640;DHT22;19049;52.524;11.468;2023-02-15T07:10:26;3.10;99.90
32640;DHT22;19049;52.524;11.468;2023-02-15T07:12:52;2.00;99.90
32640;DHT22;19049;52.524;11.468;2023-02-15T07:15:19;2.00;99.90
32640;DHT22;19049;52.524;11.468;2023-02-15T07:17:48;2.00;99.90
32640;DHT22;19049;52.524;11.468;2023-02-15T07:20:21;2.00;99.90
32640;DHT22;19049;52.524;11.468;2023-02-15T07:22:48;2.00;99.90
32640;DHT22;19049;52.524;11.468;2023-02-15T07:25:14;2.30;99.90
32640;DHT22;19049;52.524;11.468;2023-02-15T07:27:40;1.90;99.90
32640;DHT22;19049;52.524;11.468;2023-02-15T07:30:11;2.00;99.90
32640;DHT22;19049;52.524;11.468;2023-02-15T07:32:37;2.10;99.90
32640;DHT22;19049;52.524;11.468;2023-02-15T07:35:22;2.10;99.90
32640;DHT22;19049;52.524;11.468;2023-02-15T07:40:14;2.20;99.90
32640;DHT22;19049;52.524;11.468;2023-02-15T07:45:06;2.30;99.90
32640;DHT22;19049;52.524;11.468;2023-02-15T07:47:31;2.30;99.90
32640;DHT22;19049;52.524;11.468;2023-02-15T07:54:49;2.40;99.90
32640;DHT22;19049;52.524;11.468;2023-02-15T07:59:40;3.00;99.90
32640;DHT22;19049;52.524;11.468;2023-02-15T08:02:12;2.40;99.90
32640;DHT22;19049;52.524;11.468;2023-02-15T08:04:38;3.00;99.90
32640;DHT22;19049;52.524;11.468;2023-02-15T08:07:04;2.60;99.90
32640;DHT22;19049;52.524;11.468;2023-02-15T08:09:30;2.50;99.90
32640;DHT22;19049;52.524;11.468;2023-02-15T08:11:55;3.20;99.90
32640;DHT22;19049;52.524;11.468;2023-02-15T08:14:22;3.90;99.90
32640;DHT22;19049;52.524;11.468;2023-02-15T08:16:49;2.80;99.90
32640;DHT22;19049;52.524;11.468;2023-02-15T08:21:44;2.30;99.90
32640;DHT22;19049;52.524;11.468;2023-02-15T08:24:12;2.70;99.90
32640;DHT22;19049;52.524;11.468;2023-02-15T08:26:39;2.80;99.90
32640;DHT22;19049;52.524;11.468;2023-02-15T08:29:05;2.80;99.90
32640;DHT22;19049;52.524;11.468;2023-02-15T08:31:32;4.30;99.90
32640;DHT22;19049;52.524;11.468;2023-02-15T08:33:58;2.90;99.90
32640;DHT22;19049;52.524;11.468;2023-02-15T08:36:26;2.90;99.90
32640;DHT22;19049;52.524;11.468;2023-02-15T08:41:20;3.10;99.90
32640;DHT22;19049;52.524;11.468;2023-02-15T08:43:48;3.10;99.90
32640;DHT22;19049;52.524;11.468;2023-02-15T08:46:15;3.20;99.90
32640;DHT22;19049;52.524;11.468;2023-02-15T08:48:41;3.20;99.90
32640;DHT22;19049;52.524;11.468;2023-02-15T08:51:24;3.30;99.90
32640;DHT22;19049;52.524;11.468;2023-02-15T08:53:52;3.40;99.90
32640;DHT22;19049;52.524;11.468;2023-02-15T08:56:20;3.40;99.90
32640;DHT22;19049;52.524;11.468;2023-02-15T09:01:17;3.60;99.90
32640;DHT22;19049;52.524;11.468;2023-02-15T09:11:17;4.00;99.90
32640;DHT22;19049;52.524;11.468;2023-02-15T09:13:55;4.20;99.90
32640;DHT22;19049;52.524;11.468;2023-02-15T09:16:22;4.20;99.90
32640;DHT22;19049;52.524;11.468;2023-02-15T09:18:49;4.30;99.90
32640;DHT22;19049;52.524;11.468;2023-02-15T09:21:17;4.40;99.90
32640;DHT22;19049;52.524;11.468;2023-02-15T09:23:46;4.50;99.90
32640;DHT22;19049;52.524;11.468;2023-02-15T09:26:19;4.50;99.90
32640;DHT22;19049;52.524;11.468;2023-02-15T09:31:17;4.70;99.90
32640;DHT22;19049;52.524;11.468;2023-02-15T09:33:44;4.80;99.90
32640;DHT22;19049;52.524;11.468;2023-02-15T09:36:25;4.80;99.90
32640;DHT22;19049;52.524;11.468;2023-02-15T09:39:15;4.80;99.90
32640;DHT22;19049;52.524;11.468;2023-02-15T09:56:10;5.10;99.90
32640;DHT22;19049;52.524;11.468;2023-02-15T09:58:59;5.20;99.90
32640;DHT22;19049;52.524;11.468;2023-02-15T10:01:42;5.30;99.90
32640;DHT22;19049;52.524;11.468;2023-02-15T10:09:25;6.70;99.90
32640;DHT22;19049;52.524;11.468;2023-02-15T10:21:19;6.00;99.90
32640;DHT22;19049;52.524;11.468;2023-02-15T10:26:46;6.20;99.90
32640;DHT22;19049;52.524;11.468;2023-02-15T10:34:39;6.40;99.90
32640;DHT22;19049;52.524;11.468;2023-02-15T10:40:46;5.50;99.90
32640;DHT22;19049;52.524;11.468;2023-02-15T10:46:11;6.70;99.80
32640;DHT22;19049;52.524;11.468;2023-02-15T10:57:49;7.00;99.90
32640;DHT22;19049;52.524;11.468;2023-02-15T11:00:23;7.10;99.90
32640;DHT22;19049;52.524;11.468;2023-02-15T11:03:36;7.20;99.90
32640;DHT22;19049;52.524;11.468;2023-02-15T11:06:09;7.10;99.90
32640;DHT22;19049;52.524;11.468;2023-02-15T11:08:45;7.40;99.90
32640;DHT22;19049;52.524;11.468;2023-02-15T11:11:29;7.60;99.90
32640;DHT22;19049;52.524;11.468;2023-02-15T11:14:02;7.70;99.90
32640;DHT22;19049;52.524;11.468;2023-02-15T11:16:38;7.90;99.90
32640;DHT22;19049;52.524;11.468;2023-02-15T11:19:17;8.00;99.90
32640;DHT22;19049;52.524;11.468;2023-02-15T11:21:51;8.50;99.90
32640;DHT22;19049;52.524;11.468;2023-02-15T11:24:19;8.20;99.80
32640;DHT22;19049;52.524;11.468;2023-02-15T11:29:18;8.40;99.80
32640;DHT22;19049;52.524;11.468;2023-02-15T11:31:53;8.70;99.90
32640;DHT22;19049;52.524;11.468;2023-02-15T11:36:50;8.20;99.90
32640;DHT22;19049;52.524;11.468;2023-02-15T11:39:18;8.80;99.90
32640;DHT22;19049;52.524;11.468;2023-02-15T11:41:49;9.00;99.90
32640;DHT22;19049;52.524;11.468;2023-02-15T11:44:32;9.30;99.90
32640;DHT22;19049;52.524;11.468;2023-02-15T11:49:34;10.00;99.90
32640;DHT22;19049;52.524;11.468;2023-02-15T11:52:05;10.40;99.90
32640;DHT22;19049;52.524;11.468;2023-02-15T11:54:33;10.70;99.60
32640;DHT22;19049;52.524;11.468;2023-02-15T11:57:14;10.90;98.90
32640;DHT22;19049;52.524;11.468;2023-02-15T11:59:47;11.10;98.60
32640;DHT22;19049;52.524;11.468;2023-02-15T12:02:22;11.30;98.50
32640;DHT22;19049;52.524;11.468;2023-02-15T12:04:58;11.50;98.10
32640;DHT22;19049;52.524;11.468;2023-02-15T12:07:35;12.00;99.90
32640;DHT22;19049;52.524;11.468;2023-02-15T12:10:27;11.80;98.10
32640;DHT22;19049;52.524;11.468;2023-02-15T12:13:15;12.70;99.90
32640;DHT22;19049;52.524;11.468;2023-02-15T12:15:47;12.70;97.40
32640;DHT22;19049;52.524;11.468;2023-02-15T12:18:42;13.00;97.10
32640;DHT22;19049;52.524;11.468;2023-02-15T12:21:23;13.50;99.90
32640;DHT22;19049;52.524;11.468;2023-02-15T12:23:55;13.50;99.90
32640;DHT22;19049;52.524;11.468;2023-02-15T12:26:26;13.50;96.30
32640;DHT22;19049;52.524;11.468;2023-02-15T12:28:54;13.90;99.90
32640;DHT22;19049;52.524;11.468;2023-02-15T12:31:35;14.00;96.00
32640;DHT22;19049;52.524;11.468;2023-02-15T12:34:25;14.30;95.90
32640;DHT22;19049;52.524;11.468;2023-02-15T12:36:53;14.50;94.60
32640;DHT22;19049;52.524;11.468;2023-02-15T12:39:27;15.00;95.00
32640;DHT22;19049;52.524;11.468;2023-02-15T12:44:22;15.20;94.40
32640;DHT22;19049;52.524;11.468;2023-02-15T12:46:56;15.60;99.90
32640;DHT22;19049;52.524;11.468;2023-02-15T12:51:49;15.40;99.90
32640;DHT22;19049;52.524;11.468;2023-02-15T12:59:51;16.50;87.00
32640;DHT22;19049;52.524;11.468;2023-02-15T13:02:22;16.60;91.80
32640;DHT22;19049;52.524;11.468;2023-02-15T13:04:49;16.70;89.30
32640;DHT22;19049;52.524;11.468;2023-02-15T13:07:15;16.50;97.50
32640;DHT22;19049;52.524;11.468;2023-02-15T13:09:41;16.80;89.90
32640;DHT22;19049;52.524;11.468;2023-02-15T13:12:28;16.90;87.30
32640;DHT22;19049;52.524;11.468;2023-02-15T13:14:57;17.40;93.40
32640;DHT22;19049;52.524;11.468;2023-02-15T13:17:31;17.50;94.10
32640;DHT22;19049;52.524;11.468;2023-02-15T13:20:05;17.50;91.80
32640;DHT22;19049;52.524;11.468;2023-02-15T13:22:45;16.50;92.90
32640;DHT22;19049;52.524;11.468;2023-02-15T13:25:22;17.00;80.60
32640;DHT22;19049;52.524;11.468;2023-02-15T13:27:54;17.10;82.70
32640;DHT22;19049;52.524;11.468;2023-02-15T13:30:27;17.40;84.10
32640;DHT22;19049;52.524;11.468;2023-02-15T13:33:54;17.50;81.80
32640;DHT22;19049;52.524;11.468;2023-02-15T13:36:21;17.70;83.10
32640;DHT22;19049;52.524;11.468;2023-02-15T13:41:30;17.80;79.60
32640;DHT22;19049;52.524;11.468;2023-02-15T13:46:48;18.00;79.10
32640;DHT22;19049;52.524;11.468;2023-02-15T14:16:03;19.80;89.40
32640;DHT22;19049;52.524;11.468;2023-02-15T14:32:30;20.60;83.40
32640;DHT22;19049;52.524;11.468;2023-02-15T14:34:59;20.00;71.30
32640;DHT22;19049;52.524;11.468;2023-02-15T14:43:17;19.20;86.90
32640;DHT22;19049;52.524;11.468;2023-02-15T14:48:31;19.10;70.70
32640;DHT22;19049;52.524;11.468;2023-02-15T14:50:59;18.90;74.50
32640;DHT22;19049;52.524;11.468;2023-02-15T14:53:33;18.70;76.10
32640;DHT22;19049;52.524;11.468;2023-02-15T15:01:15;18.60;76.60
32640;DHT22;19049;52.524;11.468;2023-02-15T15:03:50;18.60;82.20
32640;DHT22;19049;52.524;11.468;2023-02-15T15:06:38;18.60;79.00
32640;DHT22;19049;52.524;11.468;2023-02-15T15:11:42;18.50;79.30
32640;DHT22;19049;52.524;11.468;2023-02-15T15:14:08;18.50;80.30
32640;DHT22;19049;52.524;11.468;2023-02-15T15:19:04;18.20;81.20
32640;DHT22;19049;52.524;11.468;2023-02-15T15:32:43;17.70;81.20
32640;DHT22;19049;52.524;11.468;2023-02-15T15:38:16;17.10;80.50
32640;DHT22;19049;52.524;11.468;2023-02-15T15:48:41;15.10;82.50
32640;DHT22;19049;52.524;11.468;2023-02-15T15:53:45;14.80;83.30
32640;DHT22;19049;52.524;11.468;2023-02-15T15:56:24;13.90;84.00
32640;DHT22;19049;52.524;11.468;2023-02-15T15:58:59;13.90;95.40
32640;DHT22;19049;52.524;11.468;2023-02-15T16:01:41;12.40;95.40
32640;DHT22;19049;52.524;11.468;2023-02-15T16:04:13;12.60;91.20
32640;DHT22;19049;52.524;11.468;2023-02-15T16:06:40;12.20;85.80
32640;DHT22;19049;52.524;11.468;2023-02-15T16:09:26;12.30;90.80
32640;DHT22;19049;52.524;11.468;2023-02-15T16:11:54;11.40;86.90
32640;DHT22;19049;52.524;11.468;2023-02-15T16:16:59;10.70;88.10
32640;DHT22;19049;52.524;11.468;2023-02-15T16:19:38;10.40;88.80
32640;DHT22;19049;52.524;11.468;2023-02-15T16:22:13;10.10;96.70
32640;DHT22;19049;52.524;11.468;2023-02-15T16:33:11;8.90;90.60
32640;DHT22;19049;52.524;11.468;2023-02-15T16:41:31;8.00;90.90
32640;DHT22;19049;52.524;11.468;2023-02-15T16:44:02;7.80;91.10
32640;DHT22;19049;52.524;11.468;2023-02-15T16:46:44;7.90;99.90
32640;DHT22;19049;52.524;11.468;2023-02-15T16:49:21;7.30;91.50
32640;DHT22;19049;52.524;11.468;2023-02-15T16:52:00;7.10;91.70
32640;DHT22;19049;52.524;11.468;2023-02-15T16:54:27;7.10;92.00
32640;DHT22;19049;52.524;11.468;2023-02-15T16:56:54;6.90;92.20
32640;DHT22;19049;52.524;11.468;2023-02-15T17:02:25;6.40;99.90
32640;DHT22;19049;52.524;11.468;2023-02-15T17:07:33;5.70;99.90
32640;DHT22;19049;52.524;11.468;2023-02-15T17:10:33;6.10;92.90
32640;DHT22;19049;52.524;11.468;2023-02-15T17:13:14;5.90;93.10
32640;DHT22;19049;52.524;11.468;2023-02-15T17:15:42;5.50;92.90
32640;DHT22;19049;52.524;11.468;2023-02-15T17:18:16;5.40;92.90
32640;DHT22;19049;52.524;11.468;2023-02-15T17:20:44;5.20;92.90
32640;DHT22;19049;52.524;11.468;2023-02-15T17:26:14;5.00;93.00
32640;DHT22;19049;52.524;11.468;2023-02-15T17:28:51;4.80;93.10
32640;DHT22;19049;52.524;11.468;2023-02-15T17:31:18;4.70;93.20
32640;DHT22;19049;52.524;11.468;2023-02-15T17:36:16;4.40;93.40
32640;DHT22;19049;52.524;11.468;2023-02-15T17:39:20;4.30;93.60
32640;DHT22;19049;52.524;11.468;2023-02-15T17:46:41;4.00;99.90
32640;DHT22;19049;52.524;11.468;2023-02-15T17:49:10;4.00;94.20
32640;DHT22;19049;52.524;11.468;2023-02-15T17:56:50;3.70;94.20
32640;DHT22;19049;52.524;11.468;2023-02-15T17:59:15;4.10;94.70
32640;DHT22;19049;52.524;11.468;2023-02-15T18:01:46;4.00;94.80
32640;DHT22;19049;52.524;11.468;2023-02-15T18:04:33;3.60;94.80
32640;DHT22;19049;52.524;11.468;2023-02-15T18:07:18;3.50;94.90
32640;DHT22;19049;52.524;11.468;2023-02-15T18:10:16;3.70;95.10
32640;DHT22;19049;52.524;11.468;2023-02-15T18:13:01;3.20;99.90
32640;DHT22;19049;52.524;11.468;2023-02-15T18:15:27;3.40;95.00
32640;DHT22;19049;52.524;11.468;2023-02-15T18:17:53;4.00;95.20
32640;DHT22;19049;52.524;11.468;2023-02-15T18:22:48;3.80;99.90
32640;DHT22;19049;52.524;11.468;2023-02-15T18:25:18;3.50;99.90
32640;DHT22;19049;52.524;11.468;2023-02-15T18:27:44;4.40;99.90
32640;DHT22;19049;52.524;11.468;2023-02-15T18:30:18;3.10;99.90
32640;DHT22;19049;52.524;11.468;2023-02-15T18:32:45;3.10;94.80
32640;DHT22;19049;52.524;11.468;2023-02-15T18:35:16;3.00;94.90
32640;DHT22;19049;52.524;11.468;2023-02-15T18:37:46;3.00;94.90
32640;DHT22;19049;52.524;11.468;2023-02-15T18:40:16;2.60;99.90
32640;DHT22;19049;52.524;11.468;2023-02-15T18:42:48;2.90;95.30
32640;DHT22;19049;52.524;11.468;2023-02-15T18:47:43;2.80;95.40
32640;DHT22;19049;52.524;11.468;2023-02-15T18:50:10;2.80;95.40
32640;DHT22;19049;52.524;11.468;2023-02-15T18:52:37;2.70;95.40
32640;DHT22;19049;52.524;11.468;2023-02-15T18:55:11;2.70;95.40
32640;DHT22;19049;52.524;11.468;2023-02-15T18:57:39;2.60;95.30
32640;DHT22;19049;52.524;11.468;2023-02-15T19:00:14;3.00;99.90
32640;DHT22;19049;52.524;11.468;2023-02-15T19:05:08;2.60;95.90
32640;DHT22;19049;52.524;11.468;2023-02-15T19:07:35;3.00;98.10
32640;DHT22;19049;52.524;11.468;2023-02-15T19:10:05;2.40;96.20
32640;DHT22;19049;52.524;11.468;2023-02-15T19:12:34;2.40;97.10
32640;DHT22;19049;52.524;11.468;2023-02-15T19:17:26;2.20;98.70
32640;DHT22;19049;52.524;11.468;2023-02-15T19:22:29;2.20;95.50
32640;DHT22;19049;52.524;11.468;2023-02-15T19:24:58;2.20;95.50
32640;DHT22;19049;52.524;11.468;2023-02-15T19:27:29;2.10;95.40
32640;DHT22;19049;52.524;11.468;2023-02-15T19:30:11;2.00;96.00
32640;DHT22;19049;52.524;11.468;2023-02-15T19:37:35;1.90;95.60
32640;DHT22;19049;52.524;11.468;2023-02-15T19:40:06;1.90;95.70
32640;DHT22;19049;52.524;11.468;2023-02-15T19:42:51;1.80;95.70
32640;DHT22;19049;52.524;11.468;2023-02-15T19:45:22;1.90;95.70
32640;DHT22;19049;52.524;11.468;2023-02-15T19:50:19;1.90;95.80
32640;DHT22;19049;52.524;11.468;2023-02-15T19:55:28;1.80;95.80
32640;DHT22;19049;52.524;11.468;2023-02-15T19:57:55;1.80;96.00
32640;DHT22;19049;52.524;11.468;2023-02-15T20:00:31;1.50;99.90
32640;DHT22;19049;52.524;11.468;2023-02-15T20:02:58;1.80;96.10
32640;DHT22;19049;52.524;11.468;2023-02-15T20:05:25;2.50;99.90
32640;DHT22;19049;52.524;11.468;2023-02-15T20:10:24;1.80;96.10
32640;DHT22;19049;52.524;11.468;2023-02-15T20:12:50;3.60;97.30
32640;DHT22;19049;52.524;11.468;2023-02-15T20:17:48;1.40;96.60
32640;DHT22;19049;52.524;11.468;2023-02-15T20:20:15;3.10;99.90
32640;DHT22;19049;52.524;11.468;2023-02-15T20:22:42;1.60;96.60
32640;DHT22;19049;52.524;11.468;2023-02-15T20:25:35;1.50;96.10
32640;DHT22;19049;52.524;11.468;2023-02-15T20:28:00;2.30;96.40
32640;DHT22;19049;52.524;11.468;2023-02-15T20:30:30;1.40;96.00
32640;DHT22;19049;52.524;11.468;2023-02-15T20:32:57;0.50;99.90
32640;DHT22;19049;52.524;11.468;2023-02-15T20:35:24;0.90;99.90
32640;DHT22;19049;52.524;11.468;2023-02-15T20:37:54;1.30;96.00
32640;DHT22;19049;52.524;11.468;2023-02-15T20:40:26;0.90;99.90
32640;DHT22;19049;52.524;11.468;2023-02-15T20:47:47;1.30;96.20
32640;DHT22;19049;52.524;11.468;2023-02-15T20:50:25;1.20;96.20
32640;DHT22;19049;52.524;11.468;2023-02-15T20:52:53;1.40;99.90
32640;DHT22;19049;52.524;11.468;2023-02-15T20:55:21;1.60;99.90
32640;DHT22;19049;52.524;11.468;2023-02-15T21:00:15;0.80;98.80
32640;DHT22;19049;52.524;11.468;2023-02-15T21:02:47;0.40;99.90
32640;DHT22;19049;52.524;11.468;2023-02-15T21:05:24;0.80;99.90
32640;DHT22;19049;52.524;11.468;2023-02-15T21:07:51;1.10;99.90
32640;DHT22;19049;52.524;11.468;2023-02-15T21:10:20;1.00;99.90
32640;DHT22;19049;52.524;11.468;2023-02-15T21:12:46;2.10;99.70
32640;DHT22;19049;52.524;11.468;2023-02-15T21:15:33;1.00;96.70
32640;DHT22;19049;52.524;11.468;2023-02-15T21:18:02;0.20;99.90
32640;DHT22;19049;52.524;11.468;2023-02-15T21:20:29;1.00;99.90
32640;DHT22;19049;52.524;11.468;2023-02-15T21:22:58;1.40;99.90
32640;DHT22;19049;52.524;11.468;2023-02-15T21:25:35;0.70;99.90
32640;DHT22;19049;52.524;11.468;2023-02-15T21:28:01;1.00;96.80
32640;DHT22;19049;52.524;11.468;2023-02-15T21:30:28;1.00;96.80
32640;DHT22;19049;52.524;11.468;2023-02-15T21:32:53;1.00;96.80
32640;DHT22;19049;52.524;11.468;2023-02-15T21:35:21;0.90;96.50
32640;DHT22;19049;52.524;11.468;2023-02-15T21:37:49;1.00;96.90
32640;DHT22;19049;52.524;11.468;2023-02-15T21:40:16;-2.60;95.80
32640;DHT22;19049;52.524;11.468;2023-02-15T21:42:42;0.90;96.80
32640;DHT22;19049;52.524;11.468;2023-02-15T21:45:27;2.10;99.90